createdAt,value
2023-04-29T00:02:45.419Z,0.47
2023-04-29T00:07:46.833Z,0.40
2023-04-29T00:12:48.703Z,0.70
2023-04-29T00:17:50.831Z,0.50
2023-04-29T00:22:52.336Z,0.95
2023-04-29T00:27:53.734Z,0.70
2023-04-29T00:32:55.353Z,0.88
2023-04-29T00:37:56.807Z,0.88
2023-04-29T00:42:58.167Z,0.93
2023-04-29T00:47:59.558Z,1.10
2023-04-29T00:53:01.318Z,1.15
2023-04-29T00:58:04.099Z,1.10
2023-04-29T01:03:05.883Z,1.48
2023-04-29T01:08:37.851Z,1.30
2023-04-29T01:13:54.390Z,1.17
2023-04-29T01:19:01.910Z,1.10
2023-04-29T01:24:03.317Z,0.80
2023-04-29T01:29:32.460Z,0.65
2023-04-29T01:34:49.014Z,0.75
2023-04-29T01:40:01.623Z,0.70
2023-04-29T01:45:06.930Z,0.95
2023-04-29T01:50:08.578Z,0.70
2023-04-29T01:55:10.990Z,0.70
2023-04-29T02:00:13.333Z,0.60
2023-04-29T02:05:14.765Z,0.50
2023-04-29T02:10:16.240Z,0.60
2023-04-29T02:15:17.829Z,0.60
2023-04-29T02:20:19.227Z,0.30
2023-04-29T02:25:20.923Z,0.40
2023-04-29T02:30:22.355Z,0.40
2023-04-29T02:35:23.709Z,0.40
2023-04-29T02:40:26.371Z,0.60
2023-04-29T02:45:27.699Z,0.80
2023-04-29T02:50:29.069Z,1.88
2023-04-29T02:55:30.437Z,2.15
2023-04-29T03:00:31.817Z,1.98
2023-04-29T03:05:33.614Z,2.15
2023-04-29T03:10:34.972Z,3.40
2023-04-29T03:15:36.873Z,4.20
2023-04-29T03:20:38.364Z,4.18
2023-04-29T03:25:40.560Z,4.13
2023-04-29T03:30:42.206Z,4.32
2023-04-29T03:35:43.843Z,4.53
2023-04-29T03:40:45.546Z,4.65
2023-04-29T03:45:47.018Z,5.20
2023-04-29T03:50:48.521Z,5.78
2023-04-29T03:55:49.874Z,5.75
2023-04-29T04:00:51.288Z,4.97
2023-04-29T04:05:52.607Z,5.28
2023-04-29T04:10:54.141Z,5.63
2023-04-29T04:15:55.489Z,5.93
2023-04-29T04:20:56.841Z,6.30
2023-04-29T04:25:58.194Z,6.50
2023-04-29T04:30:59.592Z,6.15
2023-04-29T04:36:00.989Z,6.88
2023-04-29T04:41:02.554Z,6.60
2023-04-29T04:46:11.839Z,7.50
2023-04-29T04:51:13.661Z,6.93
2023-04-29T04:56:15.050Z,7.32
2023-04-29T05:01:16.501Z,6.57
2023-04-29T05:06:17.998Z,6.25
2023-04-29T05:11:20.878Z,6.07
2023-04-29T05:16:22.268Z,6.72
2023-04-29T05:21:23.703Z,5.68
2023-04-29T05:26:25.019Z,5.93
2023-04-29T05:31:28.001Z,5.40
2023-04-29T05:36:29.757Z,6.60
2023-04-29T05:41:31.118Z,5.22
2023-04-29T05:46:32.554Z,5.18
2023-04-29T05:51:33.922Z,5.50
2023-04-29T05:56:35.519Z,4.55
2023-04-29T06:01:36.878Z,4.80
2023-04-29T06:06:38.585Z,4.25
2023-04-29T06:11:39.926Z,4.28
2023-04-29T06:16:41.329Z,4.82
2023-04-29T06:21:42.727Z,4.65
2023-04-29T06:26:44.171Z,4.30
2023-04-29T06:31:45.643Z,5.05
2023-04-29T06:36:47.122Z,3.97
2023-04-29T06:41:48.433Z,4.00
2023-04-29T06:46:49.807Z,4.55
2023-04-29T06:51:51.148Z,3.92
2023-04-29T06:56:52.578Z,4.05
2023-04-29T07:01:54.104Z,3.97
2023-04-29T07:06:55.907Z,4.43
2023-04-29T07:11:57.243Z,5.63
2023-04-29T07:16:58.772Z,3.83
2023-04-29T07:22:00.192Z,3.17
2023-04-29T07:27:01.536Z,2.78
2023-04-29T07:32:02.918Z,3.67
2023-04-29T07:37:04.248Z,3.03
2023-04-29T07:42:05.582Z,2.35
2023-04-29T07:47:06.963Z,3.50
2023-04-29T07:52:09.954Z,3.20
2023-04-29T07:57:11.380Z,2.90
2023-04-29T08:02:13.742Z,4.03
2023-04-29T08:07:15.093Z,3.30
2023-04-29T08:12:16.516Z,3.33
2023-04-29T08:17:17.850Z,3.17
2023-04-29T08:22:19.237Z,3.20
2023-04-29T08:27:21.782Z,3.03
2023-04-29T08:32:23.251Z,2.30
2023-04-29T08:37:24.607Z,2.33
2023-04-29T08:42:36.863Z,2.92
2023-04-29T08:47:38.836Z,3.75
2023-04-29T08:52:40.669Z,2.65
2023-04-29T08:57:43.197Z,2.55
2023-04-29T09:02:50.811Z,2.50
2023-04-29T09:07:52.861Z,2.78
2023-04-29T09:13:00.578Z,2.45
2023-04-29T09:18:02.032Z,1.67
2023-04-29T09:23:04.597Z,2.42
2023-04-29T09:28:16.682Z,2.33
2023-04-29T09:33:18.026Z,2.10
2023-04-29T09:38:19.588Z,2.00
2023-04-29T09:43:21.444Z,2.10
2023-04-29T09:48:32.073Z,1.95
2023-04-29T09:53:37.971Z,1.83
2023-04-29T09:58:40.131Z,1.33
2023-04-29T10:03:42.804Z,1.30
2023-04-29T10:08:46.140Z,1.20
2023-04-29T10:13:50.256Z,0.82
2023-04-29T10:18:56.326Z,1.20
2023-04-29T10:23:59.334Z,1.25
2023-04-29T10:29:02.102Z,0.90
2023-04-29T10:34:03.457Z,1.02
2023-04-29T10:39:09.537Z,1.02
2023-04-29T10:44:11.381Z,0.70
2023-04-29T10:49:12.813Z,0.80
2023-04-29T10:54:20.270Z,0.90
2023-04-29T10:59:33.568Z,0.80
2023-04-29T11:04:34.990Z,1.45
2023-04-29T11:09:38.596Z,1.75
2023-04-29T11:14:49.615Z,0.70
2023-04-29T11:19:52.217Z,1.00
2023-04-29T11:25:01.927Z,0.65
2023-04-29T11:30:06.458Z,0.85
2023-04-29T11:35:11.941Z,0.80
2023-04-29T11:40:14.385Z,0.80
2023-04-29T11:45:18.913Z,0.60
2023-04-29T11:50:20.923Z,0.77
2023-04-29T11:55:22.414Z,0.73
2023-04-29T12:00:24.619Z,0.82
2023-04-29T12:05:26.629Z,1.10
2023-04-29T12:10:28.188Z,0.70
2023-04-29T12:15:30.978Z,0.65
2023-04-29T12:20:32.596Z,0.90
2023-04-29T12:25:34.085Z,1.30
2023-04-29T12:30:36.252Z,0.90
2023-04-29T12:35:37.594Z,0.68
2023-04-29T12:40:38.927Z,0.80
2023-04-29T12:45:40.754Z,0.80
2023-04-29T12:50:42.239Z,0.77
2023-04-29T12:55:44.020Z,0.82
2023-04-29T13:00:45.507Z,0.60
2023-04-29T13:05:48.629Z,1.27
2023-04-29T13:10:50.093Z,0.85
2023-04-29T13:15:51.577Z,0.68
2023-04-29T13:20:53.736Z,1.10
2023-04-29T13:25:55.440Z,0.90
2023-04-29T13:30:56.984Z,1.05
2023-04-29T13:35:58.402Z,1.10
2023-04-29T13:40:59.948Z,0.93
2023-04-29T13:46:01.365Z,1.02
2023-04-29T14:01:54.626Z,1.25
2023-04-29T14:06:34.099Z,1.17
2023-04-29T14:11:36.789Z,1.10
2023-04-29T14:16:38.467Z,1.15
2023-04-29T14:21:40.031Z,1.45
2023-04-29T14:26:41.869Z,1.90
2023-04-29T14:31:43.381Z,2.05
2023-04-29T14:36:46.723Z,1.92
2023-04-29T14:41:48.663Z,2.17
2023-04-29T14:46:50.147Z,2.25
2023-04-29T14:51:51.630Z,2.17
2023-04-29T14:56:53.070Z,1.10
2023-04-29T15:01:54.443Z,0.70
2023-04-29T15:06:57.713Z,0.43
2023-04-29T15:11:59.006Z,1.70
2023-04-29T15:17:00.355Z,0.60
2023-04-29T15:22:01.659Z,0.30
2023-04-29T15:27:03.334Z,0.60
2023-04-29T15:32:04.909Z,0.40
2023-04-29T15:37:06.391Z,0.70
2023-04-29T15:42:09.376Z,1.30
2023-04-29T15:47:10.755Z,1.17
2023-04-29T15:52:12.062Z,1.17
2023-04-29T15:57:14.690Z,1.20
2023-04-29T16:02:16.281Z,2.05
2023-04-29T16:07:18.209Z,1.95
2023-04-29T16:12:20.639Z,2.63
2023-04-29T16:17:22.037Z,3.20
2023-04-29T16:22:23.558Z,3.33
2023-04-29T16:27:24.942Z,4.38
2023-04-29T16:32:28.469Z,3.22
2023-04-29T16:37:29.971Z,3.55
2023-04-29T16:42:31.481Z,3.30
2023-04-29T16:47:32.969Z,4.05
2023-04-29T16:52:35.165Z,3.83
2023-04-29T16:57:36.576Z,4.20
2023-04-29T17:02:40.226Z,3.13
2023-04-29T17:07:42.593Z,3.88
2023-04-29T17:12:44.117Z,3.60
2023-04-29T17:17:46.531Z,3.83
2023-04-29T17:22:48.004Z,3.60
2023-04-29T17:27:49.745Z,3.78
2023-04-29T17:32:51.275Z,4.38
2023-04-29T17:37:52.607Z,5.43
2023-04-29T17:42:54.036Z,5.28
2023-04-29T17:47:55.624Z,5.55
2023-04-29T17:52:56.946Z,5.13
2023-04-29T17:57:58.452Z,5.50
2023-04-29T18:02:59.893Z,5.82
2023-04-29T18:08:01.337Z,5.70
2023-04-29T18:13:03.337Z,7.70
2023-04-29T18:18:04.810Z,6.68
2023-04-29T18:23:06.511Z,5.45
2023-04-29T18:33:15.763Z,5.72
2023-04-29T18:38:17.466Z,6.07
2023-04-29T18:43:24.202Z,6.35
2023-04-29T18:48:25.681Z,6.60
2023-04-29T18:53:27.080Z,7.05
2023-04-29T18:58:28.496Z,6.55
2023-04-29T19:03:30.405Z,6.93
2023-04-29T19:08:31.745Z,8.20
2023-04-29T19:13:33.118Z,7.30
2023-04-29T19:18:34.495Z,6.85
2023-04-29T19:23:35.857Z,7.47
2023-04-29T19:28:37.224Z,6.57
2023-04-29T19:33:38.657Z,6.97
2023-04-29T19:38:40.344Z,7.45
2023-04-29T19:43:41.718Z,7.35
2023-04-29T19:48:43.111Z,7.30
2023-04-29T19:53:44.574Z,7.43
2023-04-29T19:58:46.149Z,7.47
2023-04-29T20:03:47.530Z,7.20
2023-04-29T20:08:48.904Z,7.88
2023-04-29T20:13:50.437Z,6.90
2023-04-29T20:18:51.822Z,7.97
2023-04-29T20:23:53.608Z,7.78
2023-04-29T20:28:54.984Z,7.60
2023-04-29T20:33:56.352Z,7.10
2023-04-29T20:38:57.712Z,7.72
2023-04-29T20:43:59.079Z,8.15
2023-04-29T20:49:00.959Z,8.43
2023-04-29T20:54:02.740Z,6.60
2023-04-29T20:59:04.261Z,6.88
2023-04-29T21:04:05.957Z,8.10
2023-04-29T21:09:08.874Z,8.13
2023-04-29T21:14:10.264Z,7.90
2023-04-29T21:19:11.676Z,9.32
2023-04-29T21:24:13.029Z,7.47
2023-04-29T21:29:14.408Z,8.23
2023-04-29T21:34:16.258Z,8.43
2023-04-29T21:39:17.686Z,8.40
2023-04-29T21:44:19.066Z,7.65
2023-04-29T21:49:20.935Z,8.40
2023-04-29T21:54:22.587Z,8.52
2023-04-29T21:59:24.103Z,8.15
2023-04-29T22:04:25.942Z,8.13
2023-04-29T22:09:27.321Z,8.93
2023-04-29T22:14:28.891Z,9.65
2023-04-29T22:19:30.323Z,8.73
2023-04-29T22:24:31.982Z,8.30
2023-04-29T22:29:33.380Z,9.40
2023-04-29T22:34:34.747Z,9.05
2023-04-29T22:39:36.065Z,9.35
2023-04-29T22:44:37.473Z,10.10
2023-04-29T22:49:38.865Z,9.63
2023-04-29T22:54:40.241Z,10.00
2023-04-29T22:59:41.554Z,10.00
2023-04-29T23:04:42.990Z,9.07
2023-04-29T23:09:44.339Z,10.38
2023-04-29T23:14:46.185Z,9.73
2023-04-29T23:19:47.506Z,11.68
2023-04-29T23:24:49.266Z,11.40
2023-04-29T23:29:51.048Z,10.48
2023-04-29T23:34:52.358Z,11.05
2023-04-29T23:39:54.015Z,11.25
2023-04-29T23:44:56.279Z,10.95
2023-04-29T23:49:57.572Z,10.95
2023-04-29T23:54:59.392Z,11.48
